Kieimaru — JJ3880 — position and weather

sailwx.info

Track history (hours):
 
Tides and Currents Weather Stations Pressure Air Temp Water Temp Dewpoint Dewpoint Depression Visibility Wind Speed Wind Dir Waves Ship Positions

Kieimaru

Last reported at 2017-Sep-24 13:42 UTC. Time now 2017-Sep-24 19:21 UTC.
Position N 34°08' E 134°56'.

Length 100 m; draft 4.8 m.

Type: Cargo ship. MMSI: 431300131.

Date/timePositionNaut miles runAvg speedWind from/ knotsBaromVisibWave heightAir tempDewpointWater temp
2017-Sep-24 13:42N 34°08' E 134°56'313.1
2017-Sep-24 13:30N 34°10' E 134°56'2112.4
2017-Sep-24 11:50N 34°30' E 135°02'411.6
2017-Sep-24 11:30N 34°34' E 135°03'5 8.7
2017-Sep-24 10:56N 34°37' E 134°57'512.0
2017-Sep-24 10:30N 34°38' E 134°51'3 0.3
2017-Sep-23 23:11N 34°41' E 134°49'3 9.3
2017-Sep-23 22:53N 34°39' E 134°51'512.0
2017-Sep-23 22:29N 34°38' E 134°57'510.6
2017-Sep-23 22:00N 34°36' E 135°03'4 7.9
2017-Sep-23 21:29N 34°33' E 135°05'511.2
2017-Sep-23 21:00N 34°27' E 135°03'610.8
2017-Sep-23 20:27N 34°22' E 135°01'7 9.6
2017-Sep-23 19:44N 34°15' E 134°60'28 0.6
2017-Sep-21 17:50N 34°41' E 134°50'3 8.3
2017-Sep-21 17:29N 34°39' E 134°52'4 8.1
2017-Sep-21 17:00N 34°37' E 134°56'5 9.3
2017-Sep-21 16:30N 34°37' E 135°02'4 8.6
2017-Sep-21 16:00N 34°34' E 135°05'610.9
2017-Sep-21 15:29N 34°29' E 135°04'610.8
2017-Sep-21 14:57N 34°23' E 135°02'710.8
2017-Sep-21 14:16N 34°16' E 134°59'311.3
2017-Sep-21 14:01N 34°13' E 134°59'4 0.1
2017-Sep-20 00:51N 34°10' E 134°56'412.9
2017-Sep-20 00:30N 34°14' E 134°58'1411.8
2017-Sep-19 23:20N 34°28' E 135°01'411.1
2017-Sep-19 22:59N 34°32' E 135°02'5 9.6
2017-Sep-19 22:30N 34°36' E 135°02'5 9.4
2017-Sep-19 22:00N 34°36' E 134°57'510.5
2017-Sep-19 21:30N 34°39' E 134°51'  
Track history (hours):
 
Tides and Currents Weather Stations Pressure Air Temp Water Temp Dewpoint Dewpoint Depression Visibility Wind Speed Wind Dir Waves Ship Positions

Kieimaru

Last reported at 2017-Sep-24 13:42 UTC. Time now 2017-Sep-24 19:21 UTC.
Position N 34°08' E 134°56'.

Length 100 m; draft 4.8 m.

Type: Cargo ship. MMSI: 431300131.

Date/timePositionNaut miles runAvg speedWind from/ knotsBaromVisibWave heightAir tempDewpointWater temp
2017-Sep-24 13:42N 34°08' E 134°56'313.1
2017-Sep-24 13:30N 34°10' E 134°56'2112.4
2017-Sep-24 11:50N 34°30' E 135°02'411.6
2017-Sep-24 11:30N 34°34' E 135°03'5 8.7
2017-Sep-24 10:56N 34°37' E 134°57'512.0
2017-Sep-24 10:30N 34°38' E 134°51'3 0.3
2017-Sep-23 23:11N 34°41' E 134°49'3 9.3
2017-Sep-23 22:53N 34°39' E 134°51'512.0
2017-Sep-23 22:29N 34°38' E 134°57'510.6
2017-Sep-23 22:00N 34°36' E 135°03'4 7.9
2017-Sep-23 21:29N 34°33' E 135°05'511.2
2017-Sep-23 21:00N 34°27' E 135°03'610.8
2017-Sep-23 20:27N 34°22' E 135°01'7 9.6
2017-Sep-23 19:44N 34°15' E 134°60'28 0.6
2017-Sep-21 17:50N 34°41' E 134°50'3 8.3
2017-Sep-21 17:29N 34°39' E 134°52'4 8.1
2017-Sep-21 17:00N 34°37' E 134°56'5 9.3
2017-Sep-21 16:30N 34°37' E 135°02'4 8.6
2017-Sep-21 16:00N 34°34' E 135°05'610.9
2017-Sep-21 15:29N 34°29' E 135°04'610.8
2017-Sep-21 14:57N 34°23' E 135°02'710.8
2017-Sep-21 14:16N 34°16' E 134°59'311.3
2017-Sep-21 14:01N 34°13' E 134°59'4 0.1
2017-Sep-20 00:51N 34°10' E 134°56'412.9
2017-Sep-20 00:30N 34°14' E 134°58'1411.8
2017-Sep-19 23:20N 34°28' E 135°01'411.1
2017-Sep-19 22:59N 34°32' E 135°02'5 9.6
2017-Sep-19 22:30N 34°36' E 135°02'5 9.4
2017-Sep-19 22:00N 34°36' E 134°57'510.5
2017-Sep-19 21:30N 34°39' E 134°51'  

Dump ship's entire track history